sensor_id;sensor_type;location;lat;lon;timestamp;temperature;humidity
15013;DHT22;7603;49.432;11.418;2022-11-04T00:01:23;10.80;99.90
15013;DHT22;7603;49.432;11.418;2022-11-04T00:03:50;10.80;99.90
15013;DHT22;7603;49.432;11.418;2022-11-04T00:06:16;10.80;99.90
15013;DHT22;7603;49.432;11.418;2022-11-04T00:08:42;10.80;99.90
15013;DHT22;7603;49.432;11.418;2022-11-04T00:11:09;10.80;99.90
15013;DHT22;7603;49.432;11.418;2022-11-04T00:13:54;10.80;99.90
15013;DHT22;7603;49.432;11.418;2022-11-04T00:16:19;10.80;99.90
15013;DHT22;7603;49.432;11.418;2022-11-04T00:19:04;10.80;99.90
15013;DHT22;7603;49.432;11.418;2022-11-04T00:21:30;10.80;99.90
15013;DHT22;7603;49.432;11.418;2022-11-04T00:24:14;10.80;99.90
15013;DHT22;7603;49.432;11.418;2022-11-04T00:26:59;10.80;99.90
15013;DHT22;7603;49.432;11.418;2022-11-04T00:29:43;10.80;99.90
15013;DHT22;7603;49.432;11.418;2022-11-04T00:32:09;10.80;99.90
15013;DHT22;7603;49.432;11.418;2022-11-04T00:34:54;10.70;99.90
15013;DHT22;7603;49.432;11.418;2022-11-04T00:37:19;10.70;99.90
15013;DHT22;7603;49.432;11.418;2022-11-04T00:39:45;10.70;99.90
15013;DHT22;7603;49.432;11.418;2022-11-04T00:42:11;10.70;99.90
15013;DHT22;7603;49.432;11.418;2022-11-04T00:44:37;10.70;99.90
15013;DHT22;7603;49.432;11.418;2022-11-04T00:47:03;10.70;99.90
15013;DHT22;7603;49.432;11.418;2022-11-04T00:49:29;10.70;99.90
15013;DHT22;7603;49.432;11.418;2022-11-04T00:51:55;10.70;99.90
15013;DHT22;7603;49.432;11.418;2022-11-04T00:54:21;10.70;99.90
15013;DHT22;7603;49.432;11.418;2022-11-04T00:56:47;10.70;99.90
15013;DHT22;7603;49.432;11.418;2022-11-04T00:59:13;10.70;99.90
15013;DHT22;7603;49.432;11.418;2022-11-04T01:01:39;10.70;99.90
15013;DHT22;7603;49.432;11.418;2022-11-04T01:04:05;10.70;99.90
15013;DHT22;7603;49.432;11.418;2022-11-04T01:06:31;10.80;99.90
15013;DHT22;7603;49.432;11.418;2022-11-04T01:09:03;10.70;99.90
15013;DHT22;7603;49.432;11.418;2022-11-04T01:11:30;10.70;99.90
15013;DHT22;7603;49.432;11.418;2022-11-04T01:13:57;10.70;99.90
15013;DHT22;7603;49.432;11.418;2022-11-04T01:16:23;10.70;99.90
15013;DHT22;7603;49.432;11.418;2022-11-04T01:18:49;10.70;99.90
15013;DHT22;7603;49.432;11.418;2022-11-04T01:21:16;10.60;99.90
15013;DHT22;7603;49.432;11.418;2022-11-04T01:23:43;10.60;99.90
15013;DHT22;7603;49.432;11.418;2022-11-04T01:26:12;10.60;99.90
15013;DHT22;7603;49.432;11.418;2022-11-04T01:28:38;10.50;99.90
15013;DHT22;7603;49.432;11.418;2022-11-04T01:31:09;10.50;99.90
15013;DHT22;7603;49.432;11.418;2022-11-04T01:33:36;10.50;99.90
15013;DHT22;7603;49.432;11.418;2022-11-04T01:36:03;10.40;99.90
15013;DHT22;7603;49.432;11.418;2022-11-04T01:38:29;10.40;99.90
15013;DHT22;7603;49.432;11.418;2022-11-04T01:40:55;10.40;99.90
15013;DHT22;7603;49.432;11.418;2022-11-04T01:43:22;10.40;99.90
15013;DHT22;7603;49.432;11.418;2022-11-04T01:45:51;10.40;99.90
15013;DHT22;7603;49.432;11.418;2022-11-04T01:48:24;10.40;99.90
15013;DHT22;7603;49.432;11.418;2022-11-04T01:50:52;10.40;99.90
15013;DHT22;7603;49.432;11.418;2022-11-04T01:53:22;10.40;99.90
15013;DHT22;7603;49.432;11.418;2022-11-04T01:55:55;10.30;99.90
15013;DHT22;7603;49.432;11.418;2022-11-04T01:58:25;10.30;99.90
15013;DHT22;7603;49.432;11.418;2022-11-04T02:00:52;10.30;99.90
15013;DHT22;7603;49.432;11.418;2022-11-04T02:03:20;10.30;99.90
15013;DHT22;7603;49.432;11.418;2022-11-04T02:05:48;10.30;99.90
15013;DHT22;7603;49.432;11.418;2022-11-04T02:08:15;10.30;99.90
15013;DHT22;7603;49.432;11.418;2022-11-04T02:10:48;10.30;99.90
15013;DHT22;7603;49.432;11.418;2022-11-04T02:13:15;10.20;99.90
15013;DHT22;7603;49.432;11.418;2022-11-04T02:21:26;10.30;99.90
15013;DHT22;7603;49.432;11.418;2022-11-04T02:24:13;10.30;99.90
15013;DHT22;7603;49.432;11.418;2022-11-04T02:35:07;10.20;99.90
15013;DHT22;7603;49.432;11.418;2022-11-04T02:43:11;10.20;99.90
15013;DHT22;7603;49.432;11.418;2022-11-04T02:45:46;10.20;99.90
15013;DHT22;7603;49.432;11.418;2022-11-04T02:51:00;10.30;99.90
15013;DHT22;7603;49.432;11.418;2022-11-04T02:56:03;10.30;99.90
15013;DHT22;7603;49.432;11.418;2022-11-04T02:58:34;10.30;99.90
15013;DHT22;7603;49.432;11.418;2022-11-04T03:01:02;10.30;99.90
15013;DHT22;7603;49.432;11.418;2022-11-04T03:03:34;10.30;99.90
15013;DHT22;7603;49.432;11.418;2022-11-04T03:06:02;10.20;99.90
15013;DHT22;7603;49.432;11.418;2022-11-04T03:08:32;10.20;99.90
15013;DHT22;7603;49.432;11.418;2022-11-04T03:11:14;10.20;99.90
15013;DHT22;7603;49.432;11.418;2022-11-04T03:13:49;10.20;99.90
15013;DHT22;7603;49.432;11.418;2022-11-04T03:16:18;10.20;99.90
15013;DHT22;7603;49.432;11.418;2022-11-04T03:21:42;10.20;99.90
15013;DHT22;7603;49.432;11.418;2022-11-04T03:24:11;10.20;99.90
15013;DHT22;7603;49.432;11.418;2022-11-04T03:34:46;10.20;99.90
15013;DHT22;7603;49.432;11.418;2022-11-04T03:37:12;10.20;99.90
15013;DHT22;7603;49.432;11.418;2022-11-04T03:39:37;10.20;99.90
15013;DHT22;7603;49.432;11.418;2022-11-04T03:42:07;10.20;99.90
15013;DHT22;7603;49.432;11.418;2022-11-04T03:44:51;10.20;99.90
15013;DHT22;7603;49.432;11.418;2022-11-04T03:47:19;10.20;99.90
15013;DHT22;7603;49.432;11.418;2022-11-04T03:49:47;10.20;99.90
15013;DHT22;7603;49.432;11.418;2022-11-04T03:52:13;10.20;99.90
15013;DHT22;7603;49.432;11.418;2022-11-04T03:54:40;10.20;99.90
15013;DHT22;7603;49.432;11.418;2022-11-04T03:57:38;10.20;99.90
15013;DHT22;7603;49.432;11.418;2022-11-04T04:00:13;10.20;99.90
15013;DHT22;7603;49.432;11.418;2022-11-04T04:03:11;10.20;99.90
15013;DHT22;7603;49.432;11.418;2022-11-04T04:06:15;10.20;99.90
15013;DHT22;7603;49.432;11.418;2022-11-04T04:14:50;10.10;99.90
15013;DHT22;7603;49.432;11.418;2022-11-04T04:19:56;10.10;99.90
15013;DHT22;7603;49.432;11.418;2022-11-04T04:22:43;10.10;99.90
15013;DHT22;7603;49.432;11.418;2022-11-04T04:25:11;10.10;99.90
15013;DHT22;7603;49.432;11.418;2022-11-04T04:27:56;10.10;99.90
15013;DHT22;7603;49.432;11.418;2022-11-04T04:30:23;10.10;99.90
15013;DHT22;7603;49.432;11.418;2022-11-04T04:35:26;10.00;99.90
15013;DHT22;7603;49.432;11.418;2022-11-04T04:38:27;10.00;99.90
15013;DHT22;7603;49.432;11.418;2022-11-04T04:41:20;10.00;99.90
15013;DHT22;7603;49.432;11.418;2022-11-04T04:44:24;10.00;99.90
15013;DHT22;7603;49.432;11.418;2022-11-04T04:47:11;10.00;99.90
15013;DHT22;7603;49.432;11.418;2022-11-04T04:49:58;9.90;99.90
15013;DHT22;7603;49.432;11.418;2022-11-04T04:52:33;9.80;99.90
15013;DHT22;7603;49.432;11.418;2022-11-04T04:54:59;9.80;99.90
15013;DHT22;7603;49.432;11.418;2022-11-04T04:57:25;9.70;99.90
15013;DHT22;7603;49.432;11.418;2022-11-04T04:59:51;9.70;99.90
15013;DHT22;7603;49.432;11.418;2022-11-04T05:02:17;9.60;99.90
15013;DHT22;7603;49.432;11.418;2022-11-04T05:04:42;9.50;99.90
15013;DHT22;7603;49.432;11.418;2022-11-04T05:07:08;9.50;99.90
15013;DHT22;7603;49.432;11.418;2022-11-04T05:09:34;9.40;99.90
15013;DHT22;7603;49.432;11.418;2022-11-04T05:12:00;9.40;99.90
15013;DHT22;7603;49.432;11.418;2022-11-04T05:14:26;9.30;99.90
15013;DHT22;7603;49.432;11.418;2022-11-04T05:16:52;9.40;99.90
15013;DHT22;7603;49.432;11.418;2022-11-04T05:19:18;9.30;99.90
15013;DHT22;7603;49.432;11.418;2022-11-04T05:21:44;9.40;99.90
15013;DHT22;7603;49.432;11.418;2022-11-04T05:24:10;9.40;99.90
15013;DHT22;7603;49.432;11.418;2022-11-04T05:26:35;9.30;99.90
15013;DHT22;7603;49.432;11.418;2022-11-04T05:29:01;9.40;99.90
15013;DHT22;7603;49.432;11.418;2022-11-04T05:31:26;9.30;99.90
15013;DHT22;7603;49.432;11.418;2022-11-04T05:33:53;9.30;99.90
15013;DHT22;7603;49.432;11.418;2022-11-04T05:36:19;9.30;99.90
15013;DHT22;7603;49.432;11.418;2022-11-04T05:38:49;9.30;99.90
15013;DHT22;7603;49.432;11.418;2022-11-04T05:41:15;9.30;99.90
15013;DHT22;7603;49.432;11.418;2022-11-04T05:43:51;9.20;99.90
15013;DHT22;7603;49.432;11.418;2022-11-04T05:46:17;9.20;99.90
15013;DHT22;7603;49.432;11.418;2022-11-04T05:48:43;9.30;99.90
15013;DHT22;7603;49.432;11.418;2022-11-04T05:51:16;9.30;99.90
15013;DHT22;7603;49.432;11.418;2022-11-04T05:53:42;9.30;99.90
15013;DHT22;7603;49.432;11.418;2022-11-04T05:56:07;9.40;99.90
15013;DHT22;7603;49.432;11.418;2022-11-04T05:58:33;9.40;99.90
15013;DHT22;7603;49.432;11.418;2022-11-04T06:01:13;9.40;99.90
15013;DHT22;7603;49.432;11.418;2022-11-04T06:03:47;9.40;99.90
15013;DHT22;7603;49.432;11.418;2022-11-04T06:06:13;9.40;99.90
15013;DHT22;7603;49.432;11.418;2022-11-04T06:08:38;9.50;99.90
15013;DHT22;7603;49.432;11.418;2022-11-04T06:11:04;9.50;99.90
15013;DHT22;7603;49.432;11.418;2022-11-04T06:13:30;9.50;99.90
15013;DHT22;7603;49.432;11.418;2022-11-04T06:15:55;9.60;99.90
15013;DHT22;7603;49.432;11.418;2022-11-04T06:18:21;9.60;99.90
15013;DHT22;7603;49.432;11.418;2022-11-04T06:20:47;9.60;99.90
15013;DHT22;7603;49.432;11.418;2022-11-04T06:23:13;9.60;99.90
15013;DHT22;7603;49.432;11.418;2022-11-04T06:25:38;9.60;99.90
15013;DHT22;7603;49.432;11.418;2022-11-04T06:28:04;9.60;99.90
15013;DHT22;7603;49.432;11.418;2022-11-04T06:30:29;9.60;99.90
15013;DHT22;7603;49.432;11.418;2022-11-04T06:32:55;9.60;99.90
15013;DHT22;7603;49.432;11.418;2022-11-04T06:35:21;9.60;99.90
15013;DHT22;7603;49.432;11.418;2022-11-04T06:37:46;9.60;99.90
15013;DHT22;7603;49.432;11.418;2022-11-04T06:40:12;9.60;99.90
15013;DHT22;7603;49.432;11.418;2022-11-04T06:42:38;9.60;99.90
15013;DHT22;7603;49.432;11.418;2022-11-04T06:45:04;9.60;99.90
15013;DHT22;7603;49.432;11.418;2022-11-04T06:47:30;9.60;99.90
15013;DHT22;7603;49.432;11.418;2022-11-04T06:49:55;9.60;99.90
15013;DHT22;7603;49.432;11.418;2022-11-04T06:52:21;9.60;99.90
15013;DHT22;7603;49.432;11.418;2022-11-04T06:54:46;9.60;99.90
15013;DHT22;7603;49.432;11.418;2022-11-04T06:57:12;9.60;99.90
15013;DHT22;7603;49.432;11.418;2022-11-04T06:59:38;9.60;99.90
15013;DHT22;7603;49.432;11.418;2022-11-04T07:02:04;9.60;99.90
15013;DHT22;7603;49.432;11.418;2022-11-04T07:04:30;9.70;99.90
15013;DHT22;7603;49.432;11.418;2022-11-04T07:06:55;9.60;99.90
15013;DHT22;7603;49.432;11.418;2022-11-04T07:09:21;9.70;99.90
15013;DHT22;7603;49.432;11.418;2022-11-04T07:11:47;9.60;99.90
15013;DHT22;7603;49.432;11.418;2022-11-04T07:14:13;9.60;99.90
15013;DHT22;7603;49.432;11.418;2022-11-04T07:16:39;9.60;99.90
15013;DHT22;7603;49.432;11.418;2022-11-04T07:19:05;9.70;99.90
15013;DHT22;7603;49.432;11.418;2022-11-04T07:21:31;9.70;99.90
15013;DHT22;7603;49.432;11.418;2022-11-04T07:23:57;9.70;99.90
15013;DHT22;7603;49.432;11.418;2022-11-04T07:26:22;9.70;99.90
15013;DHT22;7603;49.432;11.418;2022-11-04T07:28:48;9.70;99.90
15013;DHT22;7603;49.432;11.418;2022-11-04T07:31:14;9.70;99.90
15013;DHT22;7603;49.432;11.418;2022-11-04T07:33:40;9.80;99.90
15013;DHT22;7603;49.432;11.418;2022-11-04T07:36:08;9.80;99.90
15013;DHT22;7603;49.432;11.418;2022-11-04T07:38:34;9.90;99.90
15013;DHT22;7603;49.432;11.418;2022-11-04T07:41:00;9.90;99.90
15013;DHT22;7603;49.432;11.418;2022-11-04T07:43:27;9.90;99.90
15013;DHT22;7603;49.432;11.418;2022-11-04T07:46:04;9.90;99.90
15013;DHT22;7603;49.432;11.418;2022-11-04T07:48:30;9.90;99.90
15013;DHT22;7603;49.432;11.418;2022-11-04T07:50:57;9.80;99.90
15013;DHT22;7603;49.432;11.418;2022-11-04T07:53:23;9.70;99.90
15013;DHT22;7603;49.432;11.418;2022-11-04T07:55:48;9.70;99.90
15013;DHT22;7603;49.432;11.418;2022-11-04T07:58:18;9.60;99.90
15013;DHT22;7603;49.432;11.418;2022-11-04T08:00:44;9.60;99.90
15013;DHT22;7603;49.432;11.418;2022-11-04T08:03:10;9.50;99.90
15013;DHT22;7603;49.432;11.418;2022-11-04T08:05:35;9.50;99.90
15013;DHT22;7603;49.432;11.418;2022-11-04T08:08:01;9.40;99.90
15013;DHT22;7603;49.432;11.418;2022-11-04T08:10:27;9.40;99.90
15013;DHT22;7603;49.432;11.418;2022-11-04T08:12:53;9.40;99.90
15013;DHT22;7603;49.432;11.418;2022-11-04T08:15:19;9.40;99.90
15013;DHT22;7603;49.432;11.418;2022-11-04T08:17:44;9.40;99.90
15013;DHT22;7603;49.432;11.418;2022-11-04T08:20:10;9.50;99.90
15013;DHT22;7603;49.432;11.418;2022-11-04T08:22:36;9.50;99.90
15013;DHT22;7603;49.432;11.418;2022-11-04T08:25:02;9.50;99.90
15013;DHT22;7603;49.432;11.418;2022-11-04T08:27:28;9.50;99.90
15013;DHT22;7603;49.432;11.418;2022-11-04T08:29:54;9.50;99.90
15013;DHT22;7603;49.432;11.418;2022-11-04T08:32:19;9.60;99.90
15013;DHT22;7603;49.432;11.418;2022-11-04T08:34:45;9.50;99.90
15013;DHT22;7603;49.432;11.418;2022-11-04T08:37:15;9.60;99.90
15013;DHT22;7603;49.432;11.418;2022-11-04T08:39:41;9.60;99.90
15013;DHT22;7603;49.432;11.418;2022-11-04T08:42:07;9.70;99.90
15013;DHT22;7603;49.432;11.418;2022-11-04T08:44:33;9.70;99.90
15013;DHT22;7603;49.432;11.418;2022-11-04T08:46:59;9.70;99.90
15013;DHT22;7603;49.432;11.418;2022-11-04T08:49:25;9.70;99.90
15013;DHT22;7603;49.432;11.418;2022-11-04T08:51:51;9.70;99.90
15013;DHT22;7603;49.432;11.418;2022-11-04T08:54:26;9.70;99.90
15013;DHT22;7603;49.432;11.418;2022-11-04T08:56:52;9.70;99.90
15013;DHT22;7603;49.432;11.418;2022-11-04T08:59:18;9.70;99.90
15013;DHT22;7603;49.432;11.418;2022-11-04T09:01:44;9.50;99.90
15013;DHT22;7603;49.432;11.418;2022-11-04T09:04:11;9.60;99.90
15013;DHT22;7603;49.432;11.418;2022-11-04T09:06:39;9.60;99.90
15013;DHT22;7603;49.432;11.418;2022-11-04T09:09:07;9.60;99.90
15013;DHT22;7603;49.432;11.418;2022-11-04T09:11:36;9.60;99.90
15013;DHT22;7603;49.432;11.418;2022-11-04T09:14:02;9.60;99.90
15013;DHT22;7603;49.432;11.418;2022-11-04T09:16:29;9.60;99.90
15013;DHT22;7603;49.432;11.418;2022-11-04T09:18:56;9.60;99.90
15013;DHT22;7603;49.432;11.418;2022-11-04T09:21:23;9.60;99.90
15013;DHT22;7603;49.432;11.418;2022-11-04T09:23:49;9.70;99.90
15013;DHT22;7603;49.432;11.418;2022-11-04T09:26:15;9.70;99.90
15013;DHT22;7603;49.432;11.418;2022-11-04T09:28:41;9.70;99.90
15013;DHT22;7603;49.432;11.418;2022-11-04T09:31:09;9.70;99.90
15013;DHT22;7603;49.432;11.418;2022-11-04T09:33:36;9.70;99.90
15013;DHT22;7603;49.432;11.418;2022-11-04T09:36:02;9.70;99.90
15013;DHT22;7603;49.432;11.418;2022-11-04T09:38:28;9.80;99.90
15013;DHT22;7603;49.432;11.418;2022-11-04T09:40:54;9.80;99.90
15013;DHT22;7603;49.432;11.418;2022-11-04T09:45:57;9.80;99.90
15013;DHT22;7603;49.432;11.418;2022-11-04T09:48:55;9.80;99.90
15013;DHT22;7603;49.432;11.418;2022-11-04T09:51:24;9.70;99.90
15013;DHT22;7603;49.432;11.418;2022-11-04T09:53:59;9.70;99.90
15013;DHT22;7603;49.432;11.418;2022-11-04T09:56:32;9.70;99.90
15013;DHT22;7603;49.432;11.418;2022-11-04T09:59:01;9.80;99.90
15013;DHT22;7603;49.432;11.418;2022-11-04T10:01:36;9.80;99.90
15013;DHT22;7603;49.432;11.418;2022-11-04T10:04:27;9.80;99.90
15013;DHT22;7603;49.432;11.418;2022-11-04T10:15:31;10.10;99.90
15013;DHT22;7603;49.432;11.418;2022-11-04T10:20:48;10.40;99.90
15013;DHT22;7603;49.432;11.418;2022-11-04T10:26:10;10.70;99.90
15013;DHT22;7603;49.432;11.418;2022-11-04T10:28:45;10.90;99.90
15013;DHT22;7603;49.432;11.418;2022-11-04T10:31:17;11.10;99.90
15013;DHT22;7603;49.432;11.418;2022-11-04T10:33:47;11.30;99.90
15013;DHT22;7603;49.432;11.418;2022-11-04T10:36:16;11.40;99.90
15013;DHT22;7603;49.432;11.418;2022-11-04T10:38:53;11.60;99.90
15013;DHT22;7603;49.432;11.418;2022-11-04T10:43:50;12.00;99.90
15013;DHT22;7603;49.432;11.418;2022-11-04T10:51:58;12.10;99.90
15013;DHT22;7603;49.432;11.418;2022-11-04T10:54:25;12.00;99.90
15013;DHT22;7603;49.432;11.418;2022-11-04T10:56:55;11.90;99.90
15013;DHT22;7603;49.432;11.418;2022-11-04T11:01:50;11.60;99.90
15013;DHT22;7603;49.432;11.418;2022-11-04T11:04:34;11.50;99.90
15013;DHT22;7603;49.432;11.418;2022-11-04T11:07:03;11.40;99.90
15013;DHT22;7603;49.432;11.418;2022-11-04T11:09:31;11.30;99.90
15013;DHT22;7603;49.432;11.418;2022-11-04T11:12:05;11.40;99.90
15013;DHT22;7603;49.432;11.418;2022-11-04T11:14:42;11.50;99.90
15013;DHT22;7603;49.432;11.418;2022-11-04T11:17:21;11.50;99.90
15013;DHT22;7603;49.432;11.418;2022-11-04T11:22:43;11.50;99.90
15013;DHT22;7603;49.432;11.418;2022-11-04T11:25:31;11.60;99.90
15013;DHT22;7603;49.432;11.418;2022-11-04T11:27:58;11.80;99.90
15013;DHT22;7603;49.432;11.418;2022-11-04T11:33:02;12.20;99.90
15013;DHT22;7603;49.432;11.418;2022-11-04T11:35:39;12.40;99.90
15013;DHT22;7603;49.432;11.418;2022-11-04T11:38:27;12.40;99.90
15013;DHT22;7603;49.432;11.418;2022-11-04T11:41:11;12.50;99.90
15013;DHT22;7603;49.432;11.418;2022-11-04T11:43:42;12.60;99.90
15013;DHT22;7603;49.432;11.418;2022-11-04T11:46:10;12.70;99.90
15013;DHT22;7603;49.432;11.418;2022-11-04T11:48:41;12.70;99.90
15013;DHT22;7603;49.432;11.418;2022-11-04T11:51:12;12.50;99.90
15013;DHT22;7603;49.432;11.418;2022-11-04T11:53:39;12.40;99.90
15013;DHT22;7603;49.432;11.418;2022-11-04T11:59:22;12.30;99.90
15013;DHT22;7603;49.432;11.418;2022-11-04T12:04:41;12.50;99.90
15013;DHT22;7603;49.432;11.418;2022-11-04T12:21:14;13.70;99.90
15013;DHT22;7603;49.432;11.418;2022-11-04T12:23:49;13.90;99.90
15013;DHT22;7603;49.432;11.418;2022-11-04T12:32:19;13.70;99.90
15013;DHT22;7603;49.432;11.418;2022-11-04T12:43:12;12.70;99.90
15013;DHT22;7603;49.432;11.418;2022-11-04T12:45:58;12.60;99.90
15013;DHT22;7603;49.432;11.418;2022-11-04T12:48:40;12.60;99.90
15013;DHT22;7603;49.432;11.418;2022-11-04T12:56:41;12.40;99.90
15013;DHT22;7603;49.432;11.418;2022-11-04T13:02:19;12.30;99.90
15013;DHT22;7603;49.432;11.418;2022-11-04T13:05:07;12.10;99.90
15013;DHT22;7603;49.432;11.418;2022-11-04T13:07:55;12.00;99.90
15013;DHT22;7603;49.432;11.418;2022-11-04T13:10:42;11.90;99.90
15013;DHT22;7603;49.432;11.418;2022-11-04T13:13:12;11.90;99.90
15013;DHT22;7603;49.432;11.418;2022-11-04T13:15:46;11.70;99.90
15013;DHT22;7603;49.432;11.418;2022-11-04T13:18:18;11.70;99.90
15013;DHT22;7603;49.432;11.418;2022-11-04T13:20:50;11.60;99.90
15013;DHT22;7603;49.432;11.418;2022-11-04T13:23:24;11.60;99.90
15013;DHT22;7603;49.432;11.418;2022-11-04T13:25:53;11.60;99.90
15013;DHT22;7603;49.432;11.418;2022-11-04T13:28:20;11.60;99.90
15013;DHT22;7603;49.432;11.418;2022-11-04T13:38:41;11.50;99.90
15013;DHT22;7603;49.432;11.418;2022-11-04T13:43:55;11.40;99.90
15013;DHT22;7603;49.432;11.418;2022-11-04T13:51:23;11.60;99.90
15013;DHT22;7603;49.432;11.418;2022-11-04T13:53:58;11.60;99.90
15013;DHT22;7603;49.432;11.418;2022-11-04T13:56:36;11.60;99.90
15013;DHT22;7603;49.432;11.418;2022-11-04T14:01:32;11.60;99.90
15013;DHT22;7603;49.432;11.418;2022-11-04T14:04:27;11.50;99.90
15013;DHT22;7603;49.432;11.418;2022-11-04T14:07:01;11.50;99.90
15013;DHT22;7603;49.432;11.418;2022-11-04T14:14:42;11.40;99.90
15013;DHT22;7603;49.432;11.418;2022-11-04T14:25:22;11.30;99.90
15013;DHT22;7603;49.432;11.418;2022-11-04T14:27:51;11.20;99.90
15013;DHT22;7603;49.432;11.418;2022-11-04T14:30:40;11.20;99.90
15013;DHT22;7603;49.432;11.418;2022-11-04T14:33:27;11.20;99.90
15013;DHT22;7603;49.432;11.418;2022-11-04T14:35:57;11.20;99.90
15013;DHT22;7603;49.432;11.418;2022-11-04T14:38:38;11.20;99.90
15013;DHT22;7603;49.432;11.418;2022-11-04T14:43:54;11.10;99.90
15013;DHT22;7603;49.432;11.418;2022-11-04T14:46:24;11.10;99.90
15013;DHT22;7603;49.432;11.418;2022-11-04T14:48:54;11.10;99.90
15013;DHT22;7603;49.432;11.418;2022-11-04T14:51:28;11.00;99.90
15013;DHT22;7603;49.432;11.418;2022-11-04T14:54:18;10.90;99.90
15013;DHT22;7603;49.432;11.418;2022-11-04T14:56:45;10.80;99.90
15013;DHT22;7603;49.432;11.418;2022-11-04T14:59:22;10.70;99.90
15013;DHT22;7603;49.432;11.418;2022-11-04T15:01:49;10.60;99.90
15013;DHT22;7603;49.432;11.418;2022-11-04T15:07:02;10.50;99.90
15013;DHT22;7603;49.432;11.418;2022-11-04T15:09:37;10.50;99.90
15013;DHT22;7603;49.432;11.418;2022-11-04T15:12:12;10.40;99.90
15013;DHT22;7603;49.432;11.418;2022-11-04T15:14:57;10.40;99.90
15013;DHT22;7603;49.432;11.418;2022-11-04T15:17:27;10.30;99.90
15013;DHT22;7603;49.432;11.418;2022-11-04T15:19:56;10.20;99.90
15013;DHT22;7603;49.432;11.418;2022-11-04T15:22:24;10.20;99.90
15013;DHT22;7603;49.432;11.418;2022-11-04T15:24:50;10.10;99.90
15013;DHT22;7603;49.432;11.418;2022-11-04T15:27:18;10.10;99.90
15013;DHT22;7603;49.432;11.418;2022-11-04T15:29:56;10.00;99.90
15013;DHT22;7603;49.432;11.418;2022-11-04T15:32:23;10.00;99.90
15013;DHT22;7603;49.432;11.418;2022-11-04T15:34:49;9.90;99.90
15013;DHT22;7603;49.432;11.418;2022-11-04T15:37:16;9.90;99.90
15013;DHT22;7603;49.432;11.418;2022-11-04T15:39:44;9.80;99.90
15013;DHT22;7603;49.432;11.418;2022-11-04T15:42:19;9.80;99.90
15013;DHT22;7603;49.432;11.418;2022-11-04T15:45:29;9.70;99.90
15013;DHT22;7603;49.432;11.418;2022-11-04T15:48:28;9.60;99.90
15013;DHT22;7603;49.432;11.418;2022-11-04T15:53:26;9.50;99.90
15013;DHT22;7603;49.432;11.418;2022-11-04T15:55:51;9.40;99.90
15013;DHT22;7603;49.432;11.418;2022-11-04T15:58:18;9.40;99.90
15013;DHT22;7603;49.432;11.418;2022-11-04T16:00:54;9.30;99.90
15013;DHT22;7603;49.432;11.418;2022-11-04T16:03:22;9.30;99.90
15013;DHT22;7603;49.432;11.418;2022-11-04T16:06:04;9.30;99.90
15013;DHT22;7603;49.432;11.418;2022-11-04T16:08:31;9.20;99.90
15013;DHT22;7603;49.432;11.418;2022-11-04T16:11:13;9.20;99.90
15013;DHT22;7603;49.432;11.418;2022-11-04T16:13:40;9.20;99.90
15013;DHT22;7603;49.432;11.418;2022-11-04T16:16:22;9.10;99.90
15013;DHT22;7603;49.432;11.418;2022-11-04T16:18:56;9.10;99.90
15013;DHT22;7603;49.432;11.418;2022-11-04T16:21:31;9.10;99.90
15013;DHT22;7603;49.432;11.418;2022-11-04T16:24:08;9.00;99.90
15013;DHT22;7603;49.432;11.418;2022-11-04T16:26:42;8.90;99.90
15013;DHT22;7603;49.432;11.418;2022-11-04T16:34:52;8.80;99.90
15013;DHT22;7603;49.432;11.418;2022-11-04T16:37:18;8.70;99.90
15013;DHT22;7603;49.432;11.418;2022-11-04T16:39:44;8.70;99.90
15013;DHT22;7603;49.432;11.418;2022-11-04T16:42:13;8.60;99.90
15013;DHT22;7603;49.432;11.418;2022-11-04T16:44:48;8.60;99.90
15013;DHT22;7603;49.432;11.418;2022-11-04T16:47:14;8.50;99.90
15013;DHT22;7603;49.432;11.418;2022-11-04T16:49:41;8.50;99.90
15013;DHT22;7603;49.432;11.418;2022-11-04T16:52:14;8.50;99.90
15013;DHT22;7603;49.432;11.418;2022-11-04T16:54:43;8.40;99.90
15013;DHT22;7603;49.432;11.418;2022-11-04T16:57:12;8.40;99.90
15013;DHT22;7603;49.432;11.418;2022-11-04T16:59:39;8.30;99.90
15013;DHT22;7603;49.432;11.418;2022-11-04T17:02:18;8.30;99.90
15013;DHT22;7603;49.432;11.418;2022-11-04T17:04:45;8.30;99.90
15013;DHT22;7603;49.432;11.418;2022-11-04T17:07:12;8.30;99.90
15013;DHT22;7603;49.432;11.418;2022-11-04T17:09:38;8.20;99.90
15013;DHT22;7603;49.432;11.418;2022-11-04T17:12:03;8.20;99.90
15013;DHT22;7603;49.432;11.418;2022-11-04T17:14:29;8.20;99.90
15013;DHT22;7603;49.432;11.418;2022-11-04T17:16:55;8.10;99.90
15013;DHT22;7603;49.432;11.418;2022-11-04T17:19:20;8.10;99.90
15013;DHT22;7603;49.432;11.418;2022-11-04T17:21:46;8.10;99.90
15013;DHT22;7603;49.432;11.418;2022-11-04T17:24:12;8.10;99.90
15013;DHT22;7603;49.432;11.418;2022-11-04T17:26:38;8.10;99.90
15013;DHT22;7603;49.432;11.418;2022-11-04T17:29:03;8.00;99.90
15013;DHT22;7603;49.432;11.418;2022-11-04T17:31:29;8.00;99.90
15013;DHT22;7603;49.432;11.418;2022-11-04T17:33:55;8.00;99.90
15013;DHT22;7603;49.432;11.418;2022-11-04T17:36:20;8.00;99.90
15013;DHT22;7603;49.432;11.418;2022-11-04T17:38:46;7.90;99.90
15013;DHT22;7603;49.432;11.418;2022-11-04T17:41:12;7.90;99.90
15013;DHT22;7603;49.432;11.418;2022-11-04T17:43:56;7.90;99.90
15013;DHT22;7603;49.432;11.418;2022-11-04T17:46:26;7.80;99.90
15013;DHT22;7603;49.432;11.418;2022-11-04T17:49:06;7.80;99.90
15013;DHT22;7603;49.432;11.418;2022-11-04T17:51:33;7.80;99.90
15013;DHT22;7603;49.432;11.418;2022-11-04T17:53:59;7.80;99.90
15013;DHT22;7603;49.432;11.418;2022-11-04T17:56:25;7.70;99.90
15013;DHT22;7603;49.432;11.418;2022-11-04T17:58:51;7.70;99.90
15013;DHT22;7603;49.432;11.418;2022-11-04T18:01:19;7.80;99.90
15013;DHT22;7603;49.432;11.418;2022-11-04T18:03:45;7.70;99.90
15013;DHT22;7603;49.432;11.418;2022-11-04T18:06:12;7.80;99.90
15013;DHT22;7603;49.432;11.418;2022-11-04T18:08:38;7.80;99.90
15013;DHT22;7603;49.432;11.418;2022-11-04T18:11:07;7.80;99.90
15013;DHT22;7603;49.432;11.418;2022-11-04T18:13:34;7.80;99.90
15013;DHT22;7603;49.432;11.418;2022-11-04T18:16:11;7.80;99.90
15013;DHT22;7603;49.432;11.418;2022-11-04T18:18:38;7.90;99.90
15013;DHT22;7603;49.432;11.418;2022-11-04T18:21:05;7.90;99.90
15013;DHT22;7603;49.432;11.418;2022-11-04T18:23:31;7.90;99.90
15013;DHT22;7603;49.432;11.418;2022-11-04T18:25:57;7.90;99.90
15013;DHT22;7603;49.432;11.418;2022-11-04T18:28:22;7.90;99.90
15013;DHT22;7603;49.432;11.418;2022-11-04T18:30:48;7.90;99.90
15013;DHT22;7603;49.432;11.418;2022-11-04T18:33:14;7.90;99.90
15013;DHT22;7603;49.432;11.418;2022-11-04T18:35:40;7.90;99.90
15013;DHT22;7603;49.432;11.418;2022-11-04T18:38:05;7.90;99.90
15013;DHT22;7603;49.432;11.418;2022-11-04T18:40:31;7.90;99.90
15013;DHT22;7603;49.432;11.418;2022-11-04T18:42:57;7.90;99.90
15013;DHT22;7603;49.432;11.418;2022-11-04T18:45:23;7.90;99.90
15013;DHT22;7603;49.432;11.418;2022-11-04T18:47:48;7.90;99.90